createdAt,value
2022-09-14T03:41:21.080Z,14.70
2022-09-14T03:44:24.120Z,14.70
2022-09-14T03:47:27.224Z,14.20
2022-09-14T03:50:30.429Z,14.21
2022-09-14T03:53:33.505Z,14.22
2022-09-14T03:56:36.250Z,14.24
2022-09-14T03:59:43.044Z,14.25
2022-09-14T04:02:46.716Z,14.26
2022-09-14T04:05:56.414Z,14.27
2022-09-14T04:08:59.324Z,14.29
2022-09-14T04:12:02.112Z,14.30
2022-09-14T04:15:08.701Z,14.32
2022-09-14T04:18:12.093Z,14.32
2022-09-14T04:21:15.687Z,14.32
2022-09-14T04:24:18.769Z,14.29
2022-09-14T04:27:21.340Z,14.32
2022-09-14T04:30:24.231Z,14.35
2022-09-14T04:33:30.725Z,14.39
2022-09-14T04:36:33.603Z,14.43
2022-09-14T04:39:36.230Z,14.45
2022-09-14T04:42:38.971Z,14.48
2022-09-14T04:45:41.427Z,14.51
2022-09-14T04:48:44.543Z,14.53
2022-09-14T04:51:47.164Z,14.55
2022-09-14T04:54:49.925Z,14.62
2022-09-14T04:57:52.483Z,14.80
2022-09-14T05:01:09.635Z,15.03
2022-09-14T05:04:12.449Z,15.25
2022-09-14T05:07:15.034Z,15.33
2022-09-14T05:10:17.588Z,15.38
2022-09-14T05:13:20.390Z,15.43
2022-09-14T05:16:29.518Z,15.45
2022-09-14T05:19:32.539Z,15.55
2022-09-14T05:22:35.341Z,15.62
2022-09-14T05:25:38.210Z,15.69
2022-09-14T05:28:40.996Z,15.84
2022-09-14T05:31:44.064Z,16.00
2022-09-14T05:34:46.527Z,16.14
2022-09-14T05:37:49.382Z,16.25
2022-09-14T05:40:54.601Z,16.31
2022-09-14T05:43:59.563Z,16.39
2022-09-14T05:47:02.975Z,16.52
2022-09-14T05:50:08.445Z,16.47
2022-09-14T05:53:11.152Z,16.44
2022-09-14T05:56:14.507Z,16.35
2022-09-14T05:59:16.852Z,16.34
2022-09-14T06:02:19.584Z,16.50
2022-09-14T06:05:25.344Z,16.70
2022-09-14T06:08:28.212Z,16.94
2022-09-14T06:11:33.848Z,16.99
2022-09-14T06:14:36.723Z,17.14
2022-09-14T06:17:39.857Z,17.39
2022-09-14T06:20:53.026Z,17.63
2022-09-14T06:23:56.172Z,17.99
2022-09-14T06:26:58.711Z,18.15
2022-09-14T06:30:01.474Z,18.43
2022-09-14T06:33:05.088Z,18.42
2022-09-14T06:36:12.272Z,18.31
2022-09-14T06:39:14.886Z,18.23
2022-09-14T06:42:17.581Z,18.51
2022-09-14T06:45:23.197Z,18.52
2022-09-14T06:48:27.812Z,18.40
2022-09-14T06:51:37.226Z,18.21
2022-09-14T06:54:40.029Z,17.99
2022-09-14T06:57:43.222Z,17.84
2022-09-14T07:00:46.671Z,17.60
2022-09-14T07:03:51.498Z,17.22
2022-09-14T07:06:54.315Z,16.52
2022-09-14T07:09:56.871Z,15.70
2022-09-14T07:13:00.188Z,15.38
2022-09-14T07:16:03.874Z,15.15
2022-09-14T07:19:10.275Z,15.08
2022-09-14T07:22:12.994Z,15.19
2022-09-14T07:25:15.905Z,15.38
2022-09-14T07:28:18.619Z,15.58
2022-09-14T07:31:27.780Z,15.53
2022-09-14T07:34:30.346Z,15.39
2022-09-14T07:37:33.303Z,15.54
2022-09-14T07:40:36.035Z,15.69
2022-09-14T07:43:38.992Z,15.89
2022-09-14T07:46:43.255Z,15.95
2022-09-14T07:49:46.212Z,16.00
2022-09-14T07:52:52.077Z,16.18
2022-09-14T07:55:54.888Z,16.34
2022-09-14T07:59:11.880Z,16.36
2022-09-14T08:02:23.361Z,16.40
2022-09-14T08:05:26.457Z,16.59
2022-09-14T08:08:36.269Z,16.82
2022-09-14T08:11:39.040Z,17.20
2022-09-14T08:14:41.516Z,17.37
2022-09-14T08:17:43.909Z,17.18
2022-09-14T08:20:46.832Z,16.95
2022-09-14T08:23:49.758Z,16.82
2022-09-14T08:26:52.113Z,16.89
2022-09-14T08:29:54.669Z,17.13
2022-09-14T08:33:01.267Z,17.32
2022-09-14T08:36:06.451Z,17.52
2022-09-14T08:39:12.351Z,17.84
2022-09-14T08:42:18.724Z,18.34
2022-09-14T08:45:22.541Z,18.81
2022-09-14T08:48:35.155Z,19.27
2022-09-14T08:51:37.674Z,19.77
2022-09-14T08:54:40.994Z,20.02
2022-09-14T08:58:09.933Z,20.25
2022-09-14T09:01:20.722Z,20.63
2022-09-14T09:04:39.355Z,21.17
2022-09-14T09:08:01.825Z,21.44
2022-09-14T09:11:07.317Z,21.64
2022-09-14T09:14:24.119Z,21.62
2022-09-14T09:17:29.942Z,21.77
2022-09-14T09:20:46.395Z,21.83
2022-09-14T09:23:49.040Z,22.21
2022-09-14T09:26:51.545Z,22.07
2022-09-14T09:29:53.986Z,22.30
2022-09-14T09:32:57.617Z,22.66
2022-09-14T09:36:01.976Z,22.84
2022-09-14T09:39:05.943Z,22.92
2022-09-14T09:42:17.604Z,22.30
2022-09-14T09:45:20.697Z,21.88
2022-09-14T09:48:28.402Z,22.29
2022-09-14T09:51:33.430Z,22.69
2022-09-14T09:54:38.194Z,22.97
2022-09-14T09:57:41.074Z,23.15
2022-09-14T10:00:57.114Z,23.27
2022-09-14T10:04:04.697Z,23.18
2022-09-14T10:07:21.565Z,23.18
2022-09-14T10:10:39.147Z,23.68
2022-09-14T10:13:47.111Z,24.03
2022-09-14T10:16:50.299Z,24.07
2022-09-14T10:19:55.249Z,24.64
2022-09-14T10:23:21.608Z,25.33
2022-09-14T10:26:27.110Z,25.31
2022-09-14T10:29:54.677Z,25.49
2022-09-14T10:33:03.751Z,25.59
2022-09-14T10:36:29.714Z,25.68
2022-09-14T10:39:46.298Z,25.78
2022-09-14T10:43:17.178Z,25.79
2022-09-14T10:46:25.619Z,25.67
2022-09-14T10:49:48.129Z,25.15
2022-09-14T10:53:03.464Z,25.10
2022-09-14T10:56:14.122Z,25.01
2022-09-14T10:59:35.309Z,25.24
2022-09-14T11:02:56.034Z,25.16
2022-09-14T11:06:27.905Z,25.51
2022-09-14T11:09:43.332Z,25.76
2022-09-14T11:13:04.157Z,26.02
2022-09-14T11:16:23.321Z,26.22
2022-09-14T11:19:29.854Z,25.95
2022-09-14T11:22:47.423Z,25.50
2022-09-14T11:26:12.430Z,25.14
2022-09-14T11:29:27.485Z,25.11
2022-09-14T11:32:42.571Z,24.84
2022-09-14T11:35:58.345Z,24.74
2022-09-14T11:39:11.568Z,24.56
2022-09-14T11:42:22.882Z,24.52
2022-09-14T11:45:41.146Z,24.51
2022-09-14T11:48:51.798Z,24.69
2022-09-14T11:52:00.955Z,24.96
2022-09-14T11:55:10.846Z,24.96
2022-09-14T11:58:20.908Z,25.25
2022-09-14T12:01:40.636Z,25.15
2022-09-14T12:05:04.691Z,25.27
2022-09-14T12:08:38.700Z,25.62
2022-09-14T12:11:43.125Z,26.10
2022-09-14T12:14:46.902Z,26.52
2022-09-14T12:17:51.503Z,26.82
2022-09-14T12:21:02.874Z,26.99
2022-09-14T12:24:15.399Z,27.39
2022-09-14T12:27:24.092Z,27.36
2022-09-14T12:30:40.927Z,27.07
2022-09-14T12:33:46.075Z,27.18
2022-09-14T12:36:48.834Z,26.74
2022-09-14T12:40:10.107Z,26.82
2022-09-14T12:43:34.935Z,26.63
2022-09-14T12:46:38.713Z,27.14
2022-09-14T12:49:41.655Z,28.31
2022-09-14T12:52:44.104Z,29.57
2022-09-14T12:55:56.738Z,31.13
2022-09-14T12:59:24.135Z,32.31
2022-09-14T13:02:47.467Z,33.26
2022-09-14T13:05:51.057Z,33.61
2022-09-14T13:08:56.814Z,34.12
2022-09-14T13:12:06.195Z,35.60
2022-09-14T13:15:28.017Z,37.39
2022-09-14T13:18:36.922Z,39.77
2022-09-14T13:21:50.573Z,38.90
2022-09-14T13:24:53.540Z,36.08
2022-09-14T13:27:57.896Z,34.67
2022-09-14T13:31:01.747Z,35.05
2022-09-14T13:34:05.673Z,35.03
2022-09-14T13:37:13.296Z,35.90
2022-09-14T13:40:17.108Z,36.55
2022-09-14T13:43:21.889Z,37.06
2022-09-14T13:46:27.012Z,38.48
2022-09-14T13:49:30.184Z,38.92
2022-09-14T13:53:00.501Z,39.89
2022-09-14T13:56:00.545Z,40.25
2022-09-14T13:59:12.493Z,39.88
2022-09-14T14:02:15.076Z,38.20
2022-09-14T14:05:28.483Z,38.36
2022-09-14T14:08:36.361Z,38.95
2022-09-14T14:11:52.791Z,37.66
2022-09-14T14:15:05.352Z,35.36
2022-09-14T14:18:31.697Z,33.20
2022-09-14T14:21:34.234Z,31.48
2022-09-14T14:24:55.778Z,30.28
2022-09-14T14:28:02.419Z,29.25
2022-09-14T14:31:08.796Z,28.84
2022-09-14T14:34:27.421Z,28.57
2022-09-14T14:37:30.238Z,28.34
2022-09-14T14:40:34.880Z,27.92
2022-09-14T14:43:41.297Z,27.71
2022-09-14T14:46:45.637Z,27.87
2022-09-14T14:49:48.439Z,28.74
2022-09-14T14:52:51.754Z,29.56
2022-09-14T14:55:54.624Z,30.10
2022-09-14T14:59:01.931Z,29.22
2022-09-14T15:02:06.784Z,28.38
2022-09-14T15:05:10.404Z,27.57
2022-09-14T15:08:15.534Z,27.09
2022-09-14T15:11:18.492Z,26.85
2022-09-14T15:14:26.667Z,26.49
2022-09-14T15:17:30.880Z,26.15
2022-09-14T15:20:34.145Z,26.17
2022-09-14T15:23:37.240Z,26.69
2022-09-14T15:26:40.072Z,27.20
2022-09-14T15:29:42.575Z,27.30
2022-09-14T15:32:45.464Z,27.26
2022-09-14T15:35:54.862Z,27.29
2022-09-14T15:38:57.838Z,27.11
2022-09-14T15:42:00.416Z,26.67
2022-09-14T15:45:04.062Z,26.42
2022-09-14T15:48:06.796Z,26.14
2022-09-14T15:51:11.749Z,25.98
2022-09-14T15:54:14.940Z,25.80
2022-09-14T15:57:17.699Z,25.66
2022-09-14T16:00:20.403Z,25.48
2022-09-14T16:03:23.160Z,25.21
2022-09-14T16:06:25.904Z,25.00
2022-09-14T16:09:28.825Z,24.79
2022-09-14T16:12:31.432Z,24.60
2022-09-14T16:15:34.304Z,24.41
